Time;durP1;ratioP1;P1;durP2;ratioP2;P2;SDS_P1;SDS_P2;PMS_P1;PMS_P2;Temp;Humidity;BMP_temperature;BMP_pressure;BME280_temperature;BME280_humidity;BME280_pressure;Samples;Min_cycle;Max_cycle;Signal;HPM_P1;HPM_P2
2020/12/01 00:01:27;;;;;;;23.63;18.03;;;;;;;1.68;91.83;100117.59;5047108;28;20265;-76
2020/12/01 00:03:53;;;;;;;27.50;21.87;;;;;;;1.70;91.60;100115.44;5050235;28;20906;-74
2020/12/01 00:06:18;;;;;;;15.83;14.17;;;;;;;1.72;91.76;100131.34;5050061;28;20615;-75
2020/12/01 00:08:43;;;;;;;27.60;20.47;;;;;;;1.74;91.68;100121.97;5032284;28;20183;-74
2020/12/01 00:11:13;;;;;;;22.97;18.70;;;;;;;1.79;91.64;100111.22;5050140;28;20643;-76
2020/12/01 00:13:38;;;;;;;17.77;15.90;;;;;;;1.78;91.52;100120.34;5050197;28;20179;-75
2020/12/01 00:16:04;;;;;;;36.40;26.20;;;;;;;1.83;91.68;100118.75;5050065;28;20475;-74
2020/12/01 00:18:29;;;;;;;29.57;23.10;;;;;;;1.83;91.15;100124.16;5049966;28;20257;-75
2020/12/01 00:20:54;;;;;;;16.90;14.77;;;;;;;1.84;91.17;100123.88;5050114;28;20203;-75
2020/12/01 00:23:20;;;;;;;16.13;12.93;;;;;;;1.81;91.18;100116.31;5050118;28;20180;-75
2020/12/01 00:25:45;;;;;;;16.43;12.33;;;;;;;1.81;90.94;100115.53;5052751;28;20176;-75
2020/12/01 00:28:11;;;;;;;24.07;20.40;;;;;;;1.79;91.09;100113.09;5053647;28;20175;-75
2020/12/01 00:30:36;;;;;;;32.80;25.00;;;;;;;1.79;91.14;100121.97;5053353;28;20623;-75
2020/12/01 00:33:02;;;;;;;34.87;26.47;;;;;;;1.79;91.11;100131.94;5053609;28;20203;-76
2020/12/01 00:35:30;;;;;;;18.13;14.83;;;;;;;1.80;91.20;100125.47;5053538;28;20179;-75
2020/12/01 00:37:56;;;;;;;10.87;9.77;;;;;;;1.83;91.31;100124.16;5053372;28;20199;-75
2020/12/01 00:40:21;;;;;;;34.50;26.83;;;;;;;1.84;90.80;100120.38;5035429;28;20418;-75
2020/12/01 00:42:47;;;;;;;35.80;28.33;;;;;;;1.86;91.12;100107.44;5053531;28;20421;-75
2020/12/01 00:45:15;;;;;;;25.90;19.23;;;;;;;1.89;90.99;100102.38;5053409;28;20179;-75
2020/12/01 00:47:40;;;;;;;35.20;28.20;;;;;;;1.89;91.07;100093.50;5053037;28;20182;-74
2020/12/01 00:50:09;;;;;;;35.20;28.27;;;;;;;1.91;90.76;100094.03;5053229;28;20414;-75
2020/12/01 00:52:35;;;;;;;28.27;25.33;;;;;;;1.97;90.69;100093.78;5035572;28;20633;-74
2020/12/01 00:55:00;;;;;;;13.27;11.97;;;;;;;2.02;90.41;100095.66;5053175;28;20430;-74
2020/12/01 00:57:25;;;;;;;8.83;8.07;;;;;;;2.01;90.07;100088.66;5052916;28;20235;-74
2020/12/01 00:59:51;;;;;;;23.23;20.83;;;;;;;2.01;90.24;100085.97;5053001;28;20605;-75
2020/12/01 01:02:16;;;;;;;18.03;16.33;;;;;;;2.02;90.18;100074.13;5053070;28;20629;-75
2020/12/01 01:04:41;;;;;;;14.00;12.70;;;;;;;2.04;90.00;100077.38;5052917;28;20180;-75
2020/12/01 01:07:07;;;;;;;15.20;12.83;;;;;;;2.03;90.04;100076.56;5053066;28;20278;-75
2020/12/01 01:09:32;;;;;;;12.60;11.33;;;;;;;2.03;89.86;100081.97;5052931;28;20186;-75
2020/12/01 01:11:57;;;;;;;14.30;12.67;;;;;;;2.04;90.16;100080.06;5052846;28;20167;-74
2020/12/01 01:14:23;;;;;;;8.77;7.97;;;;;;;2.03;90.19;100071.19;5052666;28;20517;-74
2020/12/01 01:16:48;;;;;;;13.63;12.17;;;;;;;2.04;89.96;100066.59;5052607;28;20654;-74
2020/12/01 01:19:14;;;;;;;13.97;12.53;;;;;;;2.04;90.14;100067.41;5052916;28;20274;-74
2020/12/01 01:21:42;;;;;;;30.97;25.03;;;;;;;2.07;90.81;100066.88;5034733;28;20253;-75
2020/12/01 01:24:07;;;;;;;17.47;14.13;;;;;;;2.10;90.57;100068.22;5052619;28;20525;-75
2020/12/01 01:26:33;;;;;;;24.87;22.47;;;;;;;2.11;90.42;100063.66;5034459;28;20506;-75
2020/12/01 01:28:58;;;;;;;18.10;15.97;;;;;;;2.15;90.17;100057.47;5052501;28;20256;-76
2020/12/01 01:31:23;;;;;;;15.10;13.53;;;;;;;2.15;90.45;100057.47;5052443;28;20179;-75
2020/12/01 01:33:49;;;;;;;11.07;10.00;;;;;;;2.12;90.21;100052.59;5052434;28;20207;-75
2020/12/01 01:36:14;;;;;;;12.50;10.73;;;;;;;2.11;90.10;100051.00;5052149;28;20175;-73
2020/12/01 01:38:39;;;;;;;11.53;10.50;;;;;;;2.09;90.14;100039.66;5052155;28;20659;-75
2020/12/01 01:41:05;;;;;;;17.47;14.83;;;;;;;2.11;89.83;100031.31;5052216;28;20216;-74
2020/12/01 01:43:30;;;;;;;11.10;9.70;;;;;;;2.12;89.48;100030.25;5052080;28;20186;-74
2020/12/01 01:45:55;;;;;;;13.70;12.37;;;;;;;2.14;88.98;100026.19;5052157;28;20710;-76
2020/12/01 01:48:27;;;;;;;13.27;12.00;;;;;;;2.17;89.29;100030.25;5034431;28;20281;-74
2020/12/01 01:51:01;;;;;;;9.20;8.40;;;;;;;2.17;88.88;100024.84;5051918;28;20768;-75
2020/12/01 01:53:30;;;;;;;10.53;9.70;;;;;;;2.21;88.42;100032.16;5052115;28;20422;-75
2020/12/01 01:56:01;;;;;;;14.33;12.97;;;;;;;2.21;88.70;100037.56;5052185;28;20412;-76
2020/12/01 01:58:34;;;;;;;17.23;15.40;;;;;;;2.24;88.80;100038.91;5052107;28;20484;-74
2020/12/01 02:01:07;;;;;;;13.60;12.20;;;;;;;2.21;88.52;100029.47;5060845;28;20474;-75
2020/12/01 02:03:34;;;;;;;12.40;11.27;;;;;;;2.22;88.48;100020.31;5053996;28;20583;-74
2020/12/01 02:06:00;;;;;;;10.97;9.97;;;;;;;2.23;89.00;100024.63;5051726;28;20414;-75
2020/12/01 02:08:27;;;;;;;21.07;19.03;;;;;;;2.25;88.97;100017.06;5051866;28;20426;-76
2020/12/01 02:10:55;;;;;;;24.13;21.90;;;;;;;2.26;89.04;100021.38;5055444;28;20182;-75
2020/12/01 02:13:31;;;;;;;25.40;22.80;;;;;;;2.29;89.17;100020.84;5072025;28;20417;-75
2020/12/01 02:15:58;;;;;;;25.03;22.70;;;;;;;2.24;89.42;100012.75;5070639;28;20902;-74
2020/12/01 02:18:33;;;;;;;20.80;18.77;;;;;;;2.34;88.69;100015.47;5070957;28;20476;-75
2020/12/01 02:21:01;;;;;;;22.53;20.30;;;;;;;2.33;88.54;100007.66;5071093;28;20939;-74
2020/12/01 02:23:26;;;;;;;23.23;21.23;;;;;;;2.36;88.61;100015.22;5071482;28;20417;-75
2020/12/01 02:25:51;;;;;;;16.57;15.03;;;;;;;2.44;88.55;100011.97;5071351;28;21086;-75
2020/12/01 02:28:17;;;;;;;6.23;5.63;;;;;;;2.44;87.91;100013.84;5071151;28;20622;-75
2020/12/01 02:30:42;;;;;;;13.53;12.13;;;;;;;2.41;88.00;99996.34;5071253;28;20187;-74
2020/12/01 02:33:07;;;;;;;7.43;6.83;;;;;;;2.43;88.53;100004.16;5071461;28;20202;-75
2020/12/01 02:35:33;;;;;;;12.77;11.50;;;;;;;2.40;88.04;100005.50;5071208;28;20567;-74
2020/12/01 02:37:58;;;;;;;21.67;17.27;;;;;;;2.40;88.42;100008.19;5070950;28;20197;-75
2020/12/01 02:40:23;;;;;;;21.30;19.33;;;;;;;2.39;88.35;100025.44;5071185;28;20174;-74
2020/12/01 02:42:53;;;;;;;17.37;15.77;;;;;;;2.43;87.96;100015.75;5068007;28;20213;-74
2020/12/01 02:45:19;;;;;;;22.50;20.60;;;;;;;2.41;87.78;100014.41;5051150;28;20171;-75
2020/12/01 02:47:44;;;;;;;12.03;10.90;;;;;;;2.46;88.10;100014.38;5050258;28;20766;-74
2020/12/01 02:50:13;;;;;;;8.30;7.50;;;;;;;2.47;88.22;100010.66;5050881;28;20183;-75
2020/12/01 02:52:38;;;;;;;22.13;20.07;;;;;;;2.51;87.88;100003.63;5033082;28;20213;-74
2020/12/01 02:55:04;;;;;;;20.33;18.53;;;;;;;2.52;87.49;100005.25;5066378;28;20207;-74
2020/12/01 02:57:29;;;;;;;23.00;20.83;;;;;;;2.47;87.39;100000.66;5051013;28;20702;-73
2020/12/01 02:59:54;;;;;;;12.03;11.00;;;;;;;2.44;87.13;100006.56;5050772;28;20202;-74
2020/12/01 03:02:20;;;;;;;19.87;18.07;;;;;;;2.39;87.52;99999.28;5051205;28;20522;-75
2020/12/01 03:04:45;;;;;;;13.23;11.87;;;;;;;2.35;87.35;99998.22;5050965;28;20245;-75
2020/12/01 03:07:10;;;;;;;19.00;17.20;;;;;;;2.30;87.21;99992.00;5049581;28;20204;-74
2020/12/01 03:09:35;;;;;;;11.90;9.40;;;;;;;2.30;87.86;99994.69;5050149;28;20206;-75
2020/12/01 03:12:01;;;;;;;10.90;8.90;;;;;;;2.33;88.16;99999.56;5051086;28;20202;-74
2020/12/01 03:14:26;;;;;;;13.90;12.70;;;;;;;2.30;87.60;100003.59;5050839;28;20660;-74
2020/12/01 03:16:52;;;;;;;16.03;14.63;;;;;;;2.29;88.03;99990.38;5050290;28;20194;-75
2020/12/01 03:19:19;;;;;;;8.53;7.67;;;;;;;2.27;87.81;99989.84;5050546;28;20553;-74
2020/12/01 03:21:44;;;;;;;9.40;8.50;;;;;;;2.21;88.01;99999.81;5050409;28;20179;-74
2020/12/01 03:24:10;;;;;;;8.17;7.47;;;;;;;2.21;88.17;99999.00;5050513;28;20414;-75
2020/12/01 03:26:35;;;;;;;9.07;8.27;;;;;;;2.23;88.22;100005.75;5050268;28;20179;-74
2020/12/01 03:29:00;;;;;;;13.13;11.93;;;;;;;2.23;88.00;100003.06;5050457;28;20568;-75
2020/12/01 03:31:26;;;;;;;21.67;19.47;;;;;;;2.26;88.15;99996.31;5050387;28;20179;-74
2020/12/01 03:33:51;;;;;;;22.70;20.70;;;;;;;2.26;88.44;99991.72;5050295;28;20171;-74
2020/12/01 03:36:18;;;;;;;10.50;8.63;;;;;;;2.27;88.62;99996.03;5050461;28;20187;-75
2020/12/01 03:38:43;;;;;;;23.07;20.93;;;;;;;2.26;88.52;100005.22;5050162;28;20624;-75
2020/12/01 03:41:09;;;;;;;24.23;22.10;;;;;;;2.32;88.32;100003.34;5050263;28;20418;-74
2020/12/01 03:43:34;;;;;;;24.40;21.87;;;;;;;2.30;88.54;100002.78;5050210;28;20171;-75
2020/12/01 03:46:00;;;;;;;10.57;7.20;;;;;;;2.38;88.21;100010.34;5050128;28;20263;-74
2020/12/01 03:48:25;;;;;;;20.17;18.37;;;;;;;2.38;88.24;100005.78;5050213;28;20198;-74
2020/12/01 03:50:50;;;;;;;22.33;20.27;;;;;;;2.42;88.48;100014.13;5050076;28;20254;-75
2020/12/01 03:53:16;;;;;;;22.60;20.50;;;;;;;2.41;88.21;100014.41;5049936;28;20175;-75
2020/12/01 03:55:41;;;;;;;21.60;19.63;;;;;;;2.45;88.22;100018.16;5032030;28;20171;-75
2020/12/01 03:58:06;;;;;;;19.93;17.90;;;;;;;2.49;88.20;100013.88;5049841;28;20728;-74
2020/12/01 04:00:32;;;;;;;21.00;19.23;;;;;;;2.48;87.83;100006.88;5052616;28;20605;-74
2020/12/01 04:02:59;;;;;;;7.37;6.67;;;;;;;2.48;88.07;100001.47;5057144;28;20174;-73
2020/12/01 04:05:27;;;;;;;6.20;5.70;;;;;;;2.47;88.04;100006.06;5074122;28;20182;-74
2020/12/01 04:07:55;;;;;;;19.47;17.77;;;;;;;2.48;88.37;99990.69;5074100;28;20170;-73
2020/12/01 04:10:23;;;;;;;19.83;18.23;;;;;;;2.39;88.47;100003.88;5073541;28;20428;-74
2020/12/01 04:12:48;;;;;;;21.30;19.40;;;;;;;2.45;88.33;100002.00;5054348;28;20436;-74
2020/12/01 04:15:15;;;;;;;20.60;18.87;;;;;;;2.47;88.99;100002.56;5056174;28;20902;-74
2020/12/01 04:17:41;;;;;;;19.40;17.70;;;;;;;2.50;88.66;100007.41;5048987;28;20260;-74
2020/12/01 04:20:07;;;;;;;19.70;18.10;;;;;;;2.51;88.46;100001.75;5054049;28;20846;-74
2020/12/01 04:22:33;;;;;;;18.30;16.90;;;;;;;2.63;87.99;100010.38;5053795;28;20228;-74
2020/12/01 04:25:00;;;;;;;19.90;17.93;;;;;;;2.56;88.25;100007.13;5053581;28;20426;-74
2020/12/01 04:27:25;;;;;;;18.80;17.20;;;;;;;2.63;87.91;100006.88;5053651;28;20426;-74
2020/12/01 04:29:51;;;;;;;18.67;17.27;;;;;;;2.61;88.02;100009.03;5053539;28;20178;-74
2020/12/01 04:32:16;;;;;;;18.87;17.37;;;;;;;2.61;88.02;100017.13;5053438;28;20256;-74
2020/12/01 04:34:42;;;;;;;16.67;15.37;;;;;;;2.75;88.28;100015.50;5053518;28;20558;-74
2020/12/01 04:37:07;;;;;;;18.07;16.70;;;;;;;2.74;88.16;100019.25;5053226;28;20235;-75
2020/12/01 04:39:33;;;;;;;17.30;15.83;;;;;;;2.78;87.74;100004.16;5053708;28;20211;-75
2020/12/01 04:41:59;;;;;;;14.17;13.07;;;;;;;2.86;87.02;100013.59;5053514;28;20171;-75
2020/12/01 04:44:30;;;;;;;16.97;15.67;;;;;;;2.79;87.37;100011.19;5053600;28;20175;-75
2020/12/01 04:46:59;;;;;;;11.23;10.23;;;;;;;2.82;87.14;100018.72;5055691;28;20421;-74
2020/12/01 04:49:30;;;;;;;14.27;13.20;;;;;;;2.83;87.03;100006.84;5073189;28;20177;-78
2020/12/01 04:52:13;;;;;;;4.70;4.27;;;;;;;2.75;87.02;100004.72;5073249;28;20416;-74
2020/12/01 04:55:25;;;;;;;12.70;11.63;;;;;;;2.72;87.14;100016.03;5073240;28;20408;-74
2020/12/01 04:58:02;;;;;;;12.43;11.23;;;;;;;2.68;87.72;100013.06;5072929;28;20206;-73
2020/12/01 05:00:57;;;;;;;14.47;13.27;;;;;;;2.70;87.92;100018.19;5073420;28;20405;-74
2020/12/01 05:03:39;;;;;;;14.70;13.50;;;;;;;2.65;87.81;100018.19;5073168;28;20405;-74
2020/12/01 05:09:03;;;;;;;13.43;12.30;;;;;;;2.59;88.45;100013.84;5053147;28;20429;-73
2020/12/01 05:11:28;;;;;;;10.13;9.33;;;;;;;2.55;88.40;100008.19;5072384;28;20447;-73
2020/12/01 05:14:01;;;;;;;6.43;5.83;;;;;;;2.55;88.78;100012.78;5072795;28;20448;-74
2020/12/01 05:16:42;;;;;;;12.27;11.07;;;;;;;2.53;88.88;100014.94;5072605;28;20633;-74
2020/12/01 05:19:42;;;;;;;14.97;13.70;;;;;;;2.54;88.96;100011.97;5054656;28;20881;-74
2020/12/01 05:22:08;;;;;;;7.30;6.47;;;;;;;2.57;88.91;100027.63;5058129;28;20432;-74
2020/12/01 05:24:44;;;;;;;18.03;16.63;;;;;;;2.55;89.44;100023.56;5073572;28;20413;-74
2020/12/01 05:27:29;;;;;;;14.67;13.37;;;;;;;2.56;90.22;100017.09;5075766;28;20424;-74
2020/12/01 05:30:01;;;;;;;8.93;8.13;;;;;;;2.55;90.15;100026.28;5054097;28;20554;-74
2020/12/01 05:32:30;;;;;;;9.97;9.17;;;;;;;2.55;90.17;100026.28;5072118;28;20774;-75
2020/12/01 05:35:06;;;;;;;14.77;13.47;;;;;;;2.55;91.05;100026.28;5072117;28;20477;-74
2020/12/01 05:37:32;;;;;;;8.20;7.27;;;;;;;2.56;90.82;100015.22;5072010;28;20459;-75
2020/12/01 05:40:09;;;;;;;12.27;11.17;;;;;;;2.58;90.96;100029.22;5071954;28;20428;-75
2020/12/01 05:42:45;;;;;;;14.80;13.50;;;;;;;2.58;91.08;100017.63;5071972;28;20625;-74
2020/12/01 05:45:24;;;;;;;17.57;16.17;;;;;;;2.57;90.90;100030.31;5071722;28;20431;-74
2020/12/01 05:47:56;;;;;;;17.80;16.43;;;;;;;2.52;91.46;100024.13;5071627;28;20774;-75
2020/12/01 05:50:25;;;;;;;17.10;15.70;;;;;;;2.58;91.22;100034.63;5071750;28;20424;-75
2020/12/01 05:53:07;;;;;;;17.37;15.93;;;;;;;2.62;90.80;100038.44;5071615;28;20413;-74
2020/12/01 05:55:32;;;;;;;10.63;9.67;;;;;;;2.57;91.08;100037.59;5071540;28;20766;-75
2020/12/01 05:58:06;;;;;;;9.53;8.77;;;;;;;2.58;90.93;100045.41;5071365;28;20457;-75
2020/12/01 06:00:34;;;;;;;16.87;15.13;;;;;;;2.54;90.76;100038.94;5071625;28;20174;-74
2020/12/01 06:03:08;;;;;;;17.13;15.63;;;;;;;2.52;90.91;100045.69;5071754;28;20170;-74
2020/12/01 06:05:38;;;;;;;16.20;14.77;;;;;;;2.59;90.84;100038.94;5071467;28;20507;-75
2020/12/01 06:08:14;;;;;;;12.40;11.43;;;;;;;2.65;90.80;100050.56;5071055;28;20420;-74
2020/12/01 06:10:45;;;;;;;18.43;16.87;;;;;;;2.61;90.75;100053.00;5071295;28;20174;-75
2020/12/01 06:13:34;;;;;;;17.20;15.70;;;;;;;2.69;90.61;100057.03;5071321;28;20193;-75
2020/12/01 06:16:20;;;;;;;8.93;8.20;;;;;;;2.66;90.30;100050.28;5071248;28;20978;-75
2020/12/01 06:18:52;;;;;;;11.57;10.53;;;;;;;2.63;89.77;100050.81;5071135;28;20564;-74
2020/12/01 06:21:34;;;;;;;14.07;12.87;;;;;;;2.62;90.06;100053.78;5070978;28;20261;-78
2020/12/01 06:24:38;;;;;;;16.07;14.77;;;;;;;2.59;90.01;100052.41;5070762;28;20423;-75
2020/12/01 06:27:18;;;;;;;17.00;15.60;;;;;;;2.60;90.30;100043.28;5070842;28;20417;-74
2020/12/01 06:29:43;;;;;;;18.30;16.70;;;;;;;2.59;90.01;100051.63;5070988;28;20409;-74
2020/12/01 06:32:17;;;;;;;15.83;14.60;;;;;;;2.56;90.22;100057.56;5070927;28;20934;-74
2020/12/01 06:35:10;;;;;;;17.33;15.97;;;;;;;2.50;89.93;100055.94;5071061;28;20200;-75
2020/12/01 06:38:04;;;;;;;19.77;18.17;;;;;;;2.43;90.50;100060.75;5070690;28;20230;-75
2020/12/01 06:40:45;;;;;;;17.53;16.20;;;;;;;2.49;90.35;100062.41;4998352;28;20815;-74
2020/12/01 06:43:16;;;;;;;19.93;18.00;;;;;;;2.44;90.31;100073.16;5070781;28;20194;-75
2020/12/01 06:45:49;;;;;;;20.07;18.47;;;;;;;2.45;90.45;100074.78;5071008;28;20413;-74
2020/12/01 06:48:20;;;;;;;16.67;15.37;;;;;;;2.51;90.77;100076.44;5070671;28;20425;-75
2020/12/01 06:50:57;;;;;;;16.97;15.63;;;;;;;2.55;90.06;100074.81;5070737;28;20198;-75
2020/12/01 06:53:35;;;;;;;18.23;16.73;;;;;;;2.42;90.43;100084.22;5070691;28;20174;-74
2020/12/01 06:56:06;;;;;;;14.57;13.33;;;;;;;2.45;89.90;100085.56;5071110;28;20891;-74
2020/12/01 06:58:36;;;;;;;14.47;13.27;;;;;;;2.38;90.00;100080.44;5070588;28;20810;-74
2020/12/01 07:01:26;;;;;;;7.37;6.67;;;;;;;2.34;90.06;100084.75;5070758;28;20769;-75
2020/12/01 07:04:23;;;;;;;6.50;5.87;;;;;;;2.31;90.13;100085.25;5070629;28;20409;-74
2020/12/01 07:07:03;;;;;;;10.47;9.47;;;;;;;2.27;90.23;100076.09;5069586;28;20490;-74
2020/12/01 07:09:28;;;;;;;8.27;7.47;;;;;;;2.30;90.64;100078.25;5070636;28;20923;-74
2020/12/01 07:12:07;;;;;;;13.57;12.40;;;;;;;2.32;90.82;100082.31;5070406;28;20424;-74
2020/12/01 07:15:05;;;;;;;5.97;5.47;;;;;;;2.36;90.48;100085.28;5070437;28;20588;-73
2020/12/01 07:17:37;;;;;;;6.23;5.73;;;;;;;2.37;90.18;100085.03;5070362;28;20472;-75
2020/12/01 07:20:30;;;;;;;10.50;9.57;;;;;;;2.40;90.63;100091.75;5070387;28;20445;-74
2020/12/01 07:23:21;;;;;;;16.20;14.70;;;;;;;2.44;90.97;100105.50;5070179;28;20772;-74
2020/12/01 07:25:57;;;;;;;7.50;6.80;;;;;;;2.44;90.95;100100.13;5070451;28;20412;-74
2020/12/01 07:28:34;;;;;;;10.27;9.37;;;;;;;2.46;91.37;100100.66;5070252;28;20432;-73
2020/12/01 07:31:19;;;;;;;8.83;7.93;;;;;;;2.47;91.61;100108.50;5052379;28;20835;-74
2020/12/01 07:33:56;;;;;;;15.80;14.07;;;;;;;2.46;91.56;100108.75;5072083;28;20415;-75
2020/12/01 07:36:38;;;;;;;14.93;13.77;;;;;;;2.53;91.23;100101.22;5073147;28;20504;-74
2020/12/01 07:39:09;;;;;;;18.07;16.67;;;;;;;2.55;91.38;100104.47;5074243;28;20213;-77
2020/12/01 07:41:46;;;;;;;18.00;16.30;;;;;;;2.57;91.44;100119.28;5074142;28;20929;-76
2020/12/01 07:44:14;;;;;;;11.40;10.10;;;;;;;2.57;91.26;100113.09;5074395;28;20465;-76
2020/12/01 07:46:51;;;;;;;10.50;9.47;;;;;;;2.62;91.19;100123.91;5074015;28;20166;-76
2020/12/01 07:49:22;;;;;;;15.03;13.83;;;;;;;2.61;90.95;100125.00;5074058;28;20949;-77
2020/12/01 07:51:52;;;;;;;16.90;15.60;;;;;;;2.58;91.09;100133.59;5074320;28;20875;-75
2020/12/01 07:54:24;;;;;;;18.30;16.87;;;;;;;2.61;91.77;100135.78;5074430;28;20246;-75
2020/12/01 07:56:50;;;;;;;17.93;16.57;;;;;;;2.69;91.86;100137.94;5073999;28;20166;-76
2020/12/01 07:59:16;;;;;;;18.77;17.30;;;;;;;2.62;91.86;100140.91;5073936;28;20208;-75
2020/12/01 08:01:42;;;;;;;16.53;15.27;;;;;;;2.66;91.36;100141.16;5073921;28;20175;-73
2020/12/01 08:04:20;;;;;;;9.63;8.80;;;;;;;2.79;91.45;100137.16;5073887;28;20170;-73
2020/12/01 08:06:56;;;;;;;17.17;15.77;;;;;;;2.67;91.84;100140.09;5073997;28;20186;-76
2020/12/01 08:09:24;;;;;;;17.63;16.10;;;;;;;2.64;91.88;100156.81;5074607;28;20319;-76
2020/12/01 08:11:53;;;;;;;16.77;15.47;;;;;;;2.62;92.09;100150.88;5079738;28;20452;-76
2020/12/01 08:14:18;;;;;;;16.97;15.57;;;;;;;2.63;91.91;100152.50;5077046;28;20585;-77
2020/12/01 08:16:59;;;;;;;17.27;15.87;;;;;;;2.63;91.91;100153.31;5074259;28;20182;-76
2020/12/01 08:19:24;;;;;;;17.07;15.67;;;;;;;2.67;92.25;100165.19;5074071;28;20185;-77
2020/12/01 08:21:50;;;;;;;16.33;14.83;;;;;;;2.63;92.50;100155.19;5036801;28;20179;-77
2020/12/01 08:24:22;;;;;;;16.90;15.27;;;;;;;2.62;92.37;100161.66;5054051;28;20168;-77
2020/12/01 08:27:03;;;;;;;18.07;16.57;;;;;;;2.63;92.78;100166.78;5054045;28;20203;-77
2020/12/01 08:29:32;;;;;;;17.17;15.60;;;;;;;2.71;92.95;100164.63;5053457;28;20432;-73
2020/12/01 08:32:21;;;;;;;17.70;16.00;;;;;;;2.70;92.79;100166.53;5053818;28;20179;-73
2020/12/01 08:35:08;;;;;;;18.00;16.30;;;;;;;2.80;92.79;100169.25;5053623;28;20413;-73
2020/12/01 08:37:47;;;;;;;16.80;15.37;;;;;;;2.75;92.86;100169.25;5052949;28;20213;-74
2020/12/01 08:40:21;;;;;;;15.70;14.40;;;;;;;2.89;92.55;100175.75;5053309;28;20510;-73
2020/12/01 08:43:20;;;;;;;9.93;8.93;;;;;;;2.83;92.95;100171.41;5053221;28;20179;-73
2020/12/01 08:46:06;;;;;;;14.43;13.03;;;;;;;2.92;92.50;100182.50;5052315;28;20414;-73
2020/12/01 08:48:42;;;;;;;15.80;14.50;;;;;;;2.88;92.80;100179.50;5052851;28;20221;-73
2020/12/01 08:51:27;;;;;;;15.27;14.07;;;;;;;2.88;92.58;100184.09;5053817;28;20289;-73
2020/12/01 08:54:14;;;;;;;15.40;14.07;;;;;;;2.86;92.60;100187.06;5056151;28;20209;-73
2020/12/01 08:56:48;;;;;;;15.60;14.30;;;;;;;2.89;92.84;100189.25;5053054;28;20499;-73
2020/12/01 08:59:32;;;;;;;16.33;15.03;;;;;;;2.88;93.03;100201.09;5052885;28;20210;-73
2020/12/01 09:02:04;;;;;;;15.63;14.37;;;;;;;2.84;93.50;100202.72;5053116;28;20456;-73
2020/12/01 09:04:32;;;;;;;14.23;12.83;;;;;;;2.82;93.32;100209.44;5052745;28;20175;-73
2020/12/01 09:07:24;;;;;;;15.97;14.67;;;;;;;2.82;93.30;100207.56;5060877;28;20524;-73
2020/12/01 09:10:09;;;;;;;15.40;13.90;;;;;;;2.76;94.06;100215.91;5031334;28;20179;-74
2020/12/01 09:12:52;;;;;;;17.60;16.10;;;;;;;2.80;94.21;100214.31;5041671;28;20197;-73
2020/12/01 09:15:40;;;;;;;15.17;13.93;;;;;;;2.89;94.25;100213.53;5051543;28;20465;-74
2020/12/01 09:23:25;;;;;;;15.03;13.73;;;;;;;2.82;93.86;100222.94;5052780;28;20418;-77
2020/12/01 09:25:53;;;;;;;17.27;15.97;;;;;;;2.77;94.13;100221.03;5052359;28;20418;-77
2020/12/01 09:28:20;;;;;;;16.17;14.77;;;;;;;2.85;94.60;100220.50;5052492;28;20768;-77
2020/12/01 09:30:46;;;;;;;16.57;15.27;;;;;;;2.86;94.43;100230.22;5052548;28;20179;-77
2020/12/01 09:33:15;;;;;;;18.53;16.87;;;;;;;2.87;93.95;100231.03;5052617;28;20421;-78
2020/12/01 09:35:41;;;;;;;17.57;15.97;;;;;;;2.90;94.34;100231.34;5052501;28;20175;-77
2020/12/01 09:38:07;;;;;;;18.47;16.80;;;;;;;3.01;93.99;100247.53;5052202;28;20469;-77
2020/12/01 09:40:34;;;;;;;18.07;16.67;;;;;;;2.96;94.06;100240.25;5052167;28;20633;-78
2020/12/01 09:44:04;;;;;;;18.07;16.57;;;;;;;2.99;94.10;100237.81;5052576;28;20179;-77
2020/12/01 09:46:02;;;;;;;16.60;15.20;;;;;;;3.16;93.79;100251.06;5038574;28;20638;-76
2020/12/01 09:48:36;;;;;;;16.83;15.43;;;;;;;3.20;93.62;100243.28;5052170;28;20572;-78
2020/12/01 09:51:02;;;;;;;17.37;15.97;;;;;;;3.10;93.54;100243.25;5034158;28;20554;-77
2020/12/01 09:58:53;;;;;;;17.10;15.57;;;;;;;3.23;93.57;100250.84;5051952;28;20206;-79
2020/12/01 10:12:28;;;;;;;16.73;15.43;;;;;;;3.12;93.67;100260.78;5052053;28;20544;-76
2020/12/01 10:24:41;;;;;;;15.30;14.00;;;;;;;3.34;93.93;100274.06;5051452;28;20176;-76
2020/12/01 10:35:42;;;;;;;15.80;14.53;;;;;;;3.25;93.55;100265.69;5051809;28;20186;-77
2020/12/01 10:38:08;;;;;;;12.50;11.40;;;;;;;3.20;93.43;100262.16;5051138;28;20215;-76
2020/12/01 10:40:33;;;;;;;15.17;13.87;;;;;;;3.21;93.34;100269.19;5051182;28;20183;-76
2020/12/01 10:42:59;;;;;;;15.87;14.57;;;;;;;3.20;93.74;100278.38;5051055;28;20175;-77
2020/12/01 10:45:27;;;;;;;16.03;14.63;;;;;;;3.30;94.22;100272.97;5051425;28;20202;-78
2020/12/01 10:47:53;;;;;;;14.70;13.50;;;;;;;3.35;93.90;100277.59;5041443;28;20182;-76
2020/12/01 10:50:23;;;;;;;14.33;13.23;;;;;;;3.28;93.77;100275.13;5041674;28;20175;-75
2020/12/01 10:52:48;;;;;;;16.97;15.57;;;;;;;3.24;93.78;100277.56;5051066;28;20179;-76
2020/12/01 10:55:22;;;;;;;14.60;13.40;;;;;;;3.38;94.03;100280.56;5050728;28;20622;-75
2020/12/01 10:57:54;;;;;;;16.53;14.90;;;;;;;3.29;93.75;100287.53;5052235;28;20244;-75
2020/12/01 11:00:22;;;;;;;15.43;13.97;;;;;;;3.26;94.12;100280.00;5052661;28;20699;-75
2020/12/01 11:02:48;;;;;;;15.53;14.33;;;;;;;3.38;94.47;100280.56;5050479;28;20418;-74
2020/12/01 11:05:18;;;;;;;17.53;16.03;;;;;;;3.31;94.33;100287.28;5051001;28;20198;-80
2020/12/01 11:07:43;;;;;;;15.17;13.97;;;;;;;3.44;93.94;100289.47;5050832;28;20259;-79
2020/12/01 11:10:09;;;;;;;14.43;13.17;;;;;;;3.48;93.75;100291.38;5050876;28;20262;-80
2020/12/01 11:12:34;;;;;;;13.67;12.57;;;;;;;3.54;93.80;100287.59;5051697;28;20186;-79
2020/12/01 11:15:00;;;;;;;14.83;13.63;;;;;;;3.38;93.83;100294.06;5047481;28;20190;-79
2020/12/01 11:17:25;;;;;;;14.60;13.40;;;;;;;3.52;93.49;100297.84;5068507;28;20253;-80
2020/12/01 11:19:51;;;;;;;12.90;11.90;;;;;;;3.57;93.63;100300.56;5070686;28;20452;-79
2020/12/01 11:22:17;;;;;;;14.67;12.93;;;;;;;3.43;93.42;100309.44;5070284;28;20629;-80
2020/12/01 11:24:42;;;;;;;14.57;13.37;;;;;;;3.48;93.88;100301.38;5053437;28;20233;-78
2020/12/01 11:27:08;;;;;;;15.20;14.00;;;;;;;3.51;93.86;100306.22;5048841;28;20617;-80
2020/12/01 11:29:35;;;;;;;15.17;13.73;;;;;;;3.55;93.58;100310.00;5047912;28;20248;-79
2020/12/01 11:32:00;;;;;;;15.37;14.07;;;;;;;3.54;93.56;100305.69;5051906;28;20229;-80
2020/12/01 11:34:26;;;;;;;20.13;18.27;;;;;;;3.56;94.07;100308.94;5054094;28;20641;-79
2020/12/01 11:36:54;;;;;;;18.17;16.67;;;;;;;3.71;93.94;100308.94;5063214;28;20185;-80
2020/12/01 11:39:19;;;;;;;20.60;18.60;;;;;;;3.58;93.67;100312.97;5056043;28;20612;-79
2020/12/01 11:41:45;;;;;;;18.37;16.90;;;;;;;3.77;93.91;100320.59;5061224;28;20503;-79
2020/12/01 11:44:12;;;;;;;16.43;15.10;;;;;;;3.85;93.48;100309.22;5064428;28;20628;-79
2020/12/01 11:46:38;;;;;;;16.80;15.40;;;;;;;3.76;93.56;100316.22;5059377;28;20234;-80
2020/12/01 11:49:04;;;;;;;16.60;15.10;;;;;;;3.71;93.67;100321.66;5071719;28;20187;-81
2020/12/01 11:51:30;;;;;;;15.97;14.57;;;;;;;3.72;93.11;100317.84;5068201;28;20193;-81
2020/12/01 11:53:56;;;;;;;18.43;17.03;;;;;;;3.78;93.34;100328.41;5070915;28;20178;-78
2020/12/01 11:56:21;;;;;;;18.40;16.80;;;;;;;3.70;93.15;100336.22;5070582;28;20213;-79
2020/12/01 11:58:47;;;;;;;18.03;16.33;;;;;;;3.62;93.33;100334.03;5071126;28;20293;-77
2020/12/01 12:01:12;;;;;;;16.20;14.77;;;;;;;3.71;92.77;100338.66;5070393;28;20174;-74
2020/12/01 12:03:37;;;;;;;15.40;14.03;;;;;;;3.75;92.69;100338.94;5070277;28;20620;-75
2020/12/01 12:06:03;;;;;;;15.93;14.53;;;;;;;3.64;93.03;100348.94;5070282;28;20216;-74
2020/12/01 12:08:28;;;;;;;15.33;14.03;;;;;;;3.65;92.45;100347.03;5052165;28;20567;-74
2020/12/01 12:10:54;;;;;;;15.93;14.63;;;;;;;3.51;92.66;100349.44;5070168;28;20641;-74
2020/12/01 12:13:19;;;;;;;16.90;15.40;;;;;;;3.43;93.04;100355.34;5070262;28;20548;-74
2020/12/01 12:15:44;;;;;;;18.23;16.70;;;;;;;3.40;93.56;100354.00;5069468;28;20171;-74
2020/12/01 12:18:10;;;;;;;16.47;14.93;;;;;;;3.63;93.36;100346.50;5049858;28;20286;-76